Terminal Aerodrome Forecast
Issued by NWS

Home | Current Version | Previous Version | Text Only | Print | Product List | Glossary On
Versions: 1 2 3 4 5 6 7 8 9 10 11 12 13 14 15 16 17 18 19 20 21 22 23 24 25
000
FTPA31 PHFO 302300
TAFITO
TAF
PHTO 302332Z 3100/3124 03010KT P6SM SCT035 BKN050
     FM310600 23005KT P6SM VCSH SCT025 BKN035
     FM312100 11010KT P6SM SCT025 BKN035=

USA.gov is the U.S. government's official web portal to all federal, state and local government web resources and services.